createdAt,value
2023-03-26T00:02:30.990Z,0.20
2023-03-26T00:05:34.234Z,0.10
2023-03-26T00:08:38.370Z,0.10
2023-03-26T00:11:42.497Z,0.10
2023-03-26T00:14:45.147Z,0.20
2023-03-26T00:17:48.101Z,0.20
2023-03-26T00:20:52.733Z,0.30
2023-03-26T00:24:04.857Z,0.17
2023-03-26T00:27:08.847Z,0.08
2023-03-26T00:30:12.525Z,0.13
2023-03-26T00:33:17.499Z,0.10
2023-03-26T00:36:20.675Z,0.13
2023-03-26T00:39:24.133Z,0.10
2023-03-26T00:42:27.601Z,0.10
2023-03-26T00:45:30.450Z,0.13
2023-03-26T00:48:44.672Z,0.10
2023-03-26T00:51:48.240Z,0.10
2023-03-26T00:54:52.330Z,0.10
2023-03-26T00:57:55.503Z,0.20
2023-03-26T01:01:01.016Z,0.13
2023-03-26T01:04:27.509Z,0.20
2023-03-26T01:07:31.579Z,0.10
2023-03-26T01:10:38.723Z,0.20
2023-03-26T01:13:51.290Z,0.00
2023-03-26T01:16:56.037Z,0.10
2023-03-26T01:20:13.215Z,0.20
2023-03-26T01:23:22.744Z,0.20
2023-03-26T01:26:43.095Z,0.00
2023-03-26T01:29:54.273Z,0.10
2023-03-26T01:33:21.558Z,0.00
2023-03-26T01:36:34.992Z,0.10
2023-03-26T01:39:53.925Z,0.17
2023-03-26T01:43:24.699Z,0.10
2023-03-26T01:46:27.874Z,0.13
2023-03-26T01:49:31.718Z,0.25
2023-03-26T01:52:35.054Z,0.15
2023-03-26T01:55:49.679Z,0.10
2023-03-26T01:58:59.801Z,0.20
2023-03-26T02:02:26.202Z,0.10
2023-03-26T02:05:34.234Z,0.10
2023-03-26T02:08:42.860Z,0.20
2023-03-26T02:11:46.852Z,0.10
2023-03-26T02:14:49.961Z,0.13
2023-03-26T02:17:54.155Z,0.20
2023-03-26T02:20:57.237Z,0.20
2023-03-26T02:24:03.350Z,0.20
2023-03-26T02:27:07.947Z,0.20
2023-03-26T02:30:14.993Z,0.20
2023-03-26T02:33:18.193Z,0.20
2023-03-26T02:36:25.120Z,0.10
2023-03-26T02:39:30.188Z,0.10
2023-03-26T02:42:33.333Z,0.10
2023-03-26T02:45:36.409Z,0.13
2023-03-26T02:48:41.574Z,0.10
2023-03-26T02:51:44.995Z,0.20
2023-03-26T02:54:48.195Z,0.10
2023-03-26T02:57:51.624Z,0.10
2023-03-26T03:00:57.717Z,0.30
2023-03-26T03:04:04.280Z,0.20
2023-03-26T03:07:07.785Z,0.20
2023-03-26T03:10:22.081Z,0.17
2023-03-26T03:13:27.690Z,0.20
2023-03-26T03:16:30.750Z,0.00
2023-03-26T03:19:33.689Z,0.25
2023-03-26T03:22:37.475Z,0.10
2023-03-26T03:25:41.203Z,0.10
2023-03-26T03:28:45.305Z,0.20
2023-03-26T03:31:49.353Z,0.17
2023-03-26T03:34:53.290Z,0.20
2023-03-26T03:37:57.610Z,0.10
2023-03-26T03:41:01.861Z,0.20
2023-03-26T03:44:04.914Z,0.15
2023-03-26T03:47:10.468Z,0.47
2023-03-26T03:50:13.316Z,0.20
2023-03-26T03:53:18.527Z,0.28
2023-03-26T03:56:24.231Z,0.60
2023-03-26T03:59:29.354Z,0.10
2023-03-26T04:02:35.063Z,0.20
2023-03-26T04:05:38.721Z,0.10
2023-03-26T04:08:41.520Z,0.32
2023-03-26T04:11:45.245Z,0.28
2023-03-26T04:14:48.848Z,0.30
2023-03-26T04:17:52.181Z,0.10
2023-03-26T04:20:55.873Z,0.20
2023-03-26T04:24:02.232Z,0.40
2023-03-26T04:27:12.701Z,0.15
2023-03-26T04:30:20.624Z,0.47
2023-03-26T04:33:25.004Z,0.20
2023-03-26T04:36:32.219Z,0.30
2023-03-26T04:39:36.287Z,0.40
2023-03-26T04:42:46.989Z,0.30
2023-03-26T04:45:50.329Z,0.30
2023-03-26T04:48:55.089Z,0.40
2023-03-26T04:51:57.916Z,0.50
2023-03-26T04:55:18.617Z,0.30
2023-03-26T04:58:32.823Z,0.30
2023-03-26T05:01:37.945Z,0.60
2023-03-26T05:04:43.810Z,0.13
2023-03-26T05:07:46.949Z,0.30
2023-03-26T05:10:50.321Z,0.28
2023-03-26T05:13:54.216Z,0.30
2023-03-26T05:16:57.069Z,0.30
2023-03-26T05:20:01.203Z,0.47
2023-03-26T05:23:04.483Z,0.40
2023-03-26T05:26:09.598Z,0.43
2023-03-26T05:29:17.784Z,0.30
2023-03-26T05:32:20.961Z,0.30
2023-03-26T05:35:25.750Z,0.20
2023-03-26T05:38:30.045Z,0.20
2023-03-26T05:41:32.754Z,0.10
2023-03-26T05:44:35.744Z,0.30
2023-03-26T05:47:39.221Z,0.20
2023-03-26T05:50:42.272Z,0.57
2023-03-26T05:53:45.342Z,0.62
2023-03-26T05:56:50.561Z,0.30
2023-03-26T06:00:05.970Z,0.40
2023-03-26T06:03:19.195Z,0.40
2023-03-26T06:06:23.925Z,0.30
2023-03-26T06:09:29.569Z,0.20
2023-03-26T06:12:32.749Z,0.28
2023-03-26T06:15:35.286Z,0.40
2023-03-26T06:18:39.324Z,0.25
2023-03-26T06:21:43.526Z,0.30
2023-03-26T06:24:46.446Z,0.20
2023-03-26T06:27:50.884Z,0.20
2023-03-26T06:30:54.991Z,0.70
2023-03-26T06:33:57.984Z,0.22
2023-03-26T06:37:00.973Z,0.60
2023-03-26T06:40:04.792Z,0.40
2023-03-26T06:43:10.821Z,0.50
2023-03-26T06:46:14.659Z,0.30
2023-03-26T06:49:18.825Z,0.40
2023-03-26T06:52:22.630Z,0.33
2023-03-26T06:55:25.969Z,0.15
2023-03-26T06:58:29.839Z,0.20
2023-03-26T07:01:40.900Z,0.40
2023-03-26T07:04:58.731Z,0.20
2023-03-26T07:08:16.093Z,0.13
2023-03-26T07:11:25.462Z,0.30
2023-03-26T07:14:30.589Z,0.30
2023-03-26T07:17:33.451Z,0.70
2023-03-26T07:20:36.646Z,0.20
2023-03-26T07:23:39.804Z,0.20
2023-03-26T07:27:07.748Z,0.20
2023-03-26T07:30:14.962Z,0.20
2023-03-26T07:33:43.208Z,0.20
2023-03-26T07:36:51.952Z,0.20
2023-03-26T07:40:03.576Z,0.20
2023-03-26T07:43:41.882Z,0.13
2023-03-26T07:46:47.840Z,0.22
2023-03-26T07:49:51.792Z,0.20
2023-03-26T07:52:55.675Z,0.10
2023-03-26T07:56:08.110Z,0.10
2023-03-26T07:59:43.931Z,0.10
2023-03-26T08:02:49.505Z,0.30
2023-03-26T08:06:07.031Z,0.10
2023-03-26T08:09:25.418Z,0.10
2023-03-26T08:12:38.908Z,0.10
2023-03-26T08:16:05.598Z,0.40
2023-03-26T08:19:49.268Z,0.10
2023-03-26T08:23:02.195Z,0.20
2023-03-26T08:26:19.798Z,0.17
2023-03-26T08:29:45.328Z,0.27
2023-03-26T08:32:59.803Z,0.30
2023-03-26T08:36:02.672Z,0.10
2023-03-26T08:39:05.973Z,0.25
2023-03-26T08:42:46.148Z,0.25
2023-03-26T08:46:10.414Z,0.30
2023-03-26T08:49:31.886Z,0.20
2023-03-26T08:53:03.292Z,0.30
2023-03-26T08:56:16.522Z,0.15
2023-03-26T08:59:53.534Z,0.15
2023-03-26T09:03:00.503Z,0.20
2023-03-26T09:06:09.468Z,0.20
2023-03-26T09:09:33.586Z,0.50
2023-03-26T09:12:59.326Z,0.30
2023-03-26T09:16:43.245Z,0.32
2023-03-26T09:19:59.225Z,0.20
2023-03-26T09:23:26.378Z,0.20
2023-03-26T09:26:38.304Z,0.50
2023-03-26T09:30:24.181Z,0.32
2023-03-26T09:33:59.430Z,0.17
2023-03-26T09:37:17.534Z,0.40
2023-03-26T09:40:23.057Z,0.20
2023-03-26T09:43:44.487Z,0.50
2023-03-26T09:47:19.794Z,0.30
2023-03-26T09:51:05.972Z,0.45
2023-03-26T09:54:21.107Z,0.33
2023-03-26T09:57:29.868Z,0.40
2023-03-26T10:00:48.611Z,0.65
2023-03-26T10:04:26.896Z,0.20
2023-03-26T10:07:47.953Z,0.40
2023-03-26T10:10:58.438Z,0.43
2023-03-26T10:14:16.212Z,0.50
2023-03-26T10:18:00.973Z,0.40
2023-03-26T10:21:38.013Z,0.35
2023-03-26T10:24:59.070Z,0.50
2023-03-26T10:28:13.757Z,0.30
2023-03-26T10:31:19.363Z,0.30
2023-03-26T10:34:54.715Z,0.20
2023-03-26T10:38:23.313Z,0.30
2023-03-26T10:41:38.098Z,0.28
2023-03-26T10:45:18.206Z,0.30
2023-03-26T10:48:43.135Z,0.30
2023-03-26T10:51:50.438Z,0.40
2023-03-26T10:54:59.836Z,0.30
2023-03-26T10:58:25.679Z,0.30
2023-03-26T11:01:50.036Z,0.23
2023-03-26T11:05:13.824Z,0.57
2023-03-26T11:08:31.647Z,0.43
2023-03-26T11:11:45.299Z,0.60
2023-03-26T11:15:03.760Z,0.50
2023-03-26T11:18:46.009Z,3.30
2023-03-26T11:21:51.446Z,1.10
2023-03-26T11:24:56.482Z,0.88
2023-03-26T11:28:06.261Z,0.10
2023-03-26T11:31:32.288Z,0.32
2023-03-26T11:34:58.417Z,0.30
2023-03-26T11:38:07.546Z,0.60
2023-03-26T11:41:22.538Z,0.30
2023-03-26T11:44:29.863Z,0.60
2023-03-26T11:47:42.688Z,0.45
2023-03-26T11:50:52.799Z,0.30
2023-03-26T11:53:57.893Z,0.30
2023-03-26T11:57:06.968Z,0.40
2023-03-26T12:00:18.231Z,0.30
2023-03-26T12:03:21.609Z,0.40
2023-03-26T12:06:30.085Z,0.40
2023-03-26T12:09:33.013Z,0.30
2023-03-26T12:12:41.709Z,0.30
2023-03-26T12:15:44.634Z,0.22
2023-03-26T12:19:08.240Z,0.40
2023-03-26T12:22:32.930Z,0.20
2023-03-26T12:25:39.193Z,0.20
2023-03-26T12:28:47.744Z,0.30
2023-03-26T12:32:04.784Z,0.50
2023-03-26T12:35:18.732Z,0.30
2023-03-26T12:38:35.442Z,0.43
2023-03-26T12:43:40.480Z,0.35
2023-03-26T12:45:04.083Z,0.30
2023-03-26T12:48:07.480Z,0.30
2023-03-26T12:51:38.935Z,0.40
2023-03-26T12:55:00.225Z,0.33
2023-03-26T12:58:41.151Z,0.30
2023-03-26T13:01:59.655Z,0.45
2023-03-26T13:05:40.457Z,0.30
2023-03-26T13:08:49.378Z,0.28
2023-03-26T13:12:43.033Z,0.30
2023-03-26T13:15:52.557Z,0.30
2023-03-26T13:19:05.086Z,0.32
2023-03-26T13:22:12.411Z,0.30
2023-03-26T13:25:35.324Z,0.28
2023-03-26T13:28:53.674Z,0.30
2023-03-26T13:32:11.925Z,0.30
2023-03-26T13:35:39.972Z,0.40
2023-03-26T13:39:03.544Z,0.30
2023-03-26T13:42:26.675Z,0.30
2023-03-26T13:45:38.138Z,0.20
2023-03-26T13:49:01.837Z,0.28
2023-03-26T13:52:19.240Z,0.30
2023-03-26T13:55:28.276Z,0.20
2023-03-26T13:58:50.778Z,0.30
2023-03-26T14:01:58.223Z,0.17
2023-03-26T14:05:10.167Z,0.28
2023-03-26T14:08:20.841Z,0.43
2023-03-26T14:11:43.381Z,0.40
2023-03-26T14:14:52.379Z,0.40
2023-03-26T14:18:10.776Z,0.20
2023-03-26T14:21:49.356Z,0.20
2023-03-26T14:25:27.683Z,0.10
2023-03-26T14:28:54.877Z,0.30
2023-03-26T14:32:04.255Z,0.10
2023-03-26T14:35:14.447Z,0.03
2023-03-26T14:38:49.357Z,0.10
2023-03-26T14:41:54.121Z,0.15
2023-03-26T14:45:09.722Z,0.28
2023-03-26T14:48:32.060Z,0.10
2023-03-26T14:51:56.737Z,0.10
2023-03-26T14:55:01.800Z,0.10
2023-03-26T14:58:23.244Z,0.10
2023-03-26T15:01:27.631Z,0.28
2023-03-26T15:04:53.935Z,0.10
2023-03-26T15:08:04.982Z,0.10
2023-03-26T15:11:45.592Z,0.10
2023-03-26T15:14:54.089Z,0.28
2023-03-26T15:18:35.100Z,0.10
2023-03-26T15:21:51.172Z,0.10
2023-03-26T15:25:16.115Z,0.20
2023-03-26T15:28:59.906Z,0.15
2023-03-26T15:32:33.618Z,0.20
2023-03-26T15:35:42.141Z,0.20
2023-03-26T15:39:18.427Z,0.50
2023-03-26T15:42:49.481Z,0.47
2023-03-26T15:46:22.372Z,0.20
2023-03-26T15:49:40.170Z,0.20
2023-03-26T15:52:49.051Z,10.65
2023-03-26T15:56:16.213Z,0.40
2023-03-26T15:59:29.494Z,0.30
2023-03-26T16:02:36.411Z,0.50
2023-03-26T16:06:14.151Z,0.30
2023-03-26T16:09:27.384Z,1.05
2023-03-26T16:12:37.436Z,0.70
2023-03-26T16:15:42.803Z,0.80
2023-03-26T16:18:51.035Z,0.70
2023-03-26T16:22:04.381Z,0.68
2023-03-26T16:25:27.269Z,0.85
2023-03-26T16:28:33.601Z,0.30
2023-03-26T16:31:39.472Z,0.50
2023-03-26T16:34:52.986Z,0.40
2023-03-26T16:38:18.502Z,0.52
2023-03-26T16:41:26.763Z,2.22
2023-03-26T16:44:44.130Z,9.38
2023-03-26T16:47:54.276Z,3.60
2023-03-26T16:51:06.282Z,1.40
2023-03-26T16:54:33.448Z,0.90
2023-03-26T16:57:42.344Z,0.90
2023-03-26T17:01:07.634Z,1.02
2023-03-26T17:04:23.577Z,0.50
2023-03-26T17:07:39.444Z,0.90
2023-03-26T17:11:36.231Z,1.08
2023-03-26T17:15:18.618Z,1.23
2023-03-26T17:18:47.040Z,1.10
2023-03-26T17:22:19.114Z,0.80
2023-03-26T17:25:35.727Z,1.30
2023-03-26T17:29:06.863Z,1.33
2023-03-26T17:32:12.840Z,1.30
2023-03-26T17:35:16.183Z,1.37
2023-03-26T17:38:25.473Z,5.37
2023-03-26T17:41:55.471Z,3.25
2023-03-26T17:45:01.386Z,2.42
2023-03-26T17:48:10.795Z,1.67
2023-03-26T17:51:22.222Z,1.33
2023-03-26T17:54:44.433Z,0.93
2023-03-26T17:57:51.993Z,1.17
2023-03-26T18:01:08.257Z,1.70
2023-03-26T18:04:15.789Z,2.55
2023-03-26T18:07:52.299Z,2.25
2023-03-26T18:11:17.079Z,2.20
2023-03-26T18:14:32.006Z,2.00
2023-03-26T18:17:46.307Z,2.12
2023-03-26T18:20:51.025Z,2.60
2023-03-26T18:23:53.985Z,3.15
2023-03-26T18:27:06.381Z,3.80
2023-03-26T18:30:22.928Z,4.18
2023-03-26T18:33:26.042Z,3.53
2023-03-26T18:36:31.022Z,3.05
2023-03-26T18:39:33.501Z,2.53
2023-03-26T18:42:37.433Z,2.83
2023-03-26T18:45:41.405Z,2.70
2023-03-26T18:48:46.336Z,3.97
2023-03-26T18:51:57.489Z,5.57
2023-03-26T18:55:02.164Z,6.95
2023-03-26T18:58:22.225Z,5.10
2023-03-26T19:01:30.697Z,3.35
2023-03-26T19:04:34.985Z,2.42
2023-03-26T19:07:39.199Z,2.30
2023-03-26T19:10:42.833Z,2.30
2023-03-26T19:13:51.142Z,2.50
2023-03-26T19:16:59.343Z,2.15
2023-03-26T19:20:04.294Z,2.53
2023-03-26T19:23:09.142Z,1.90
2023-03-26T19:26:12.560Z,1.30
2023-03-26T19:29:19.726Z,1.63
2023-03-26T19:32:32.484Z,2.30
2023-03-26T19:35:39.636Z,2.83
2023-03-26T19:38:52.056Z,3.55
2023-03-26T19:41:54.906Z,3.72
2023-03-26T19:45:05.701Z,4.03
2023-03-26T19:48:15.533Z,4.22
2023-03-26T19:51:30.892Z,5.28
2023-03-26T19:55:00.132Z,4.95
2023-03-26T19:58:04.331Z,3.05
2023-03-26T20:01:28.665Z,4.60
2023-03-26T20:04:32.988Z,4.22
2023-03-26T20:07:39.397Z,2.65
2023-03-26T20:10:43.250Z,2.65
2023-03-26T20:13:46.458Z,6.70
2023-03-26T20:16:49.784Z,6.60
2023-03-26T20:19:54.306Z,6.32
2023-03-26T20:22:57.634Z,3.67
2023-03-26T20:26:01.271Z,4.93
2023-03-26T20:29:04.838Z,6.90
2023-03-26T20:32:23.671Z,7.30
2023-03-26T20:35:35.774Z,3.30
2023-03-26T20:38:43.395Z,1.70
2023-03-26T20:41:48.729Z,3.15
2023-03-26T20:44:51.370Z,2.45
2023-03-26T20:47:54.716Z,1.37
2023-03-26T20:50:57.417Z,1.33
2023-03-26T20:54:00.691Z,1.20
2023-03-26T20:57:03.440Z,1.33
2023-03-26T21:00:22.418Z,1.20
2023-03-26T21:03:25.376Z,1.30
2023-03-26T21:06:28.234Z,1.85
2023-03-26T21:09:35.326Z,1.58
2023-03-26T21:12:47.871Z,1.83
2023-03-26T21:15:50.811Z,1.80
2023-03-26T21:18:54.305Z,2.00
2023-03-26T21:22:15.620Z,1.75
2023-03-26T21:25:24.339Z,1.90
2023-03-26T21:28:42.221Z,1.70
2023-03-26T21:31:46.675Z,1.85
2023-03-26T21:34:58.491Z,1.67
2023-03-26T21:38:04.748Z,1.73
2023-03-26T21:41:07.738Z,2.10
2023-03-26T21:44:10.917Z,1.60
2023-03-26T21:47:14.114Z,1.55
2023-03-26T21:50:21.716Z,1.50
2023-03-26T21:53:24.542Z,1.45
2023-03-26T21:56:34.764Z,1.30
2023-03-26T22:00:18.194Z,1.23
2023-03-26T22:03:21.210Z,1.60
2023-03-26T22:06:32.382Z,1.43
2023-03-26T22:09:36.448Z,1.80
2023-03-26T22:12:39.616Z,1.70
2023-03-26T22:15:43.362Z,1.60
2023-03-26T22:18:45.955Z,1.73
2023-03-26T22:21:50.978Z,1.50
2023-03-26T22:24:53.732Z,1.42
2023-03-26T22:27:57.569Z,1.92
2023-03-26T22:31:07.205Z,1.80
2023-03-26T22:34:10.162Z,1.65
2023-03-26T22:37:13.551Z,1.83
2023-03-26T22:40:17.970Z,1.80
2023-03-26T22:43:20.553Z,1.80
2023-03-26T22:46:24.219Z,1.90
2023-03-26T22:49:27.457Z,2.25
2023-03-26T22:52:30.751Z,2.77
2023-03-26T22:55:33.581Z,2.92
2023-03-26T22:58:38.004Z,2.78
2023-03-26T23:01:40.835Z,2.20
2023-03-26T23:04:44.322Z,2.60
2023-03-26T23:07:47.354Z,2.23
2023-03-26T23:10:52.140Z,2.20
2023-03-26T23:13:54.701Z,1.90
2023-03-26T23:16:57.600Z,2.58
2023-03-26T23:20:00.710Z,2.53
2023-03-26T23:23:03.706Z,2.40
2023-03-26T23:26:06.973Z,2.45
2023-03-26T23:29:10.048Z,2.40
2023-03-26T23:32:23.368Z,2.67
2023-03-26T23:35:27.704Z,2.65
2023-03-26T23:38:43.083Z,3.07
2023-03-26T23:41:46.588Z,5.72
2023-03-26T23:44:49.387Z,2.30
2023-03-26T23:47:52.441Z,2.30
2023-03-26T23:51:03.481Z,2.37
2023-03-26T23:54:08.704Z,2.60
2023-03-26T23:57:11.485Z,2.05
